createdAt,value
2023-05-22T00:01:38.152Z,21.70
2023-05-22T00:04:05.021Z,23.55
2023-05-22T00:06:31.519Z,23.73
2023-05-22T00:08:57.865Z,22.15
2023-05-22T00:11:24.267Z,21.73
2023-05-22T00:13:50.713Z,23.13
2023-05-22T00:16:17.335Z,20.17
2023-05-22T00:18:44.602Z,18.67
2023-05-22T00:21:11.287Z,26.42
2023-05-22T00:23:37.773Z,22.92
2023-05-22T00:26:04.371Z,28.08
2023-05-22T00:28:30.770Z,21.42
2023-05-22T00:30:57.248Z,27.13
2023-05-22T00:33:23.704Z,26.58
2023-05-22T00:35:51.800Z,25.42
2023-05-22T00:38:32.703Z,27.83
2023-05-22T00:41:00.330Z,26.20
2023-05-22T00:43:27.181Z,23.43
2023-05-22T00:45:56.484Z,23.33
2023-05-22T00:48:23.537Z,24.90
2023-05-22T00:50:50.973Z,25.13
2023-05-22T00:53:20.562Z,25.23
2023-05-22T00:55:47.488Z,25.67
2023-05-22T00:58:16.976Z,28.42
2023-05-22T01:00:46.139Z,27.92
2023-05-22T01:03:13.547Z,27.77
2023-05-22T01:05:40.786Z,29.60
2023-05-22T01:08:08.436Z,32.63
2023-05-22T01:10:36.612Z,24.05
2023-05-22T01:14:10.897Z,28.33
2023-05-22T01:16:46.552Z,28.63
2023-05-22T01:19:21.883Z,31.20
2023-05-22T01:22:13.351Z,26.40
2023-05-22T01:24:45.829Z,29.83
2023-05-22T01:27:42.103Z,31.77
2023-05-22T01:30:09.124Z,26.30
2023-05-22T01:32:38.195Z,26.92
2023-05-22T01:35:09.593Z,28.47
2023-05-22T01:37:38.936Z,36.10
2023-05-22T01:40:07.504Z,29.63
2023-05-22T01:42:34.605Z,34.15
2023-05-22T01:45:01.140Z,32.60
2023-05-22T01:47:27.580Z,27.63
2023-05-22T01:49:54.352Z,24.85
2023-05-22T01:52:27.189Z,33.13
2023-05-22T01:55:17.427Z,23.95
2023-05-22T01:57:51.563Z,29.52
2023-05-22T02:00:21.350Z,26.53
2023-05-22T02:02:51.973Z,21.65
2023-05-22T02:05:20.773Z,23.17
2023-05-22T02:07:48.218Z,23.50
2023-05-22T02:10:19.124Z,28.15
2023-05-22T02:12:45.910Z,21.77
2023-05-22T02:15:13.461Z,19.70
2023-05-22T02:17:40.826Z,19.80
2023-05-22T02:20:15.667Z,20.73
2023-05-22T02:22:44.353Z,21.27
2023-05-22T02:25:14.345Z,23.47
2023-05-22T02:27:45.525Z,23.98
2023-05-22T02:30:13.272Z,22.50
2023-05-22T02:32:40.807Z,21.42
2023-05-22T02:35:08.340Z,22.20
2023-05-22T02:37:35.581Z,19.13
2023-05-22T02:40:02.112Z,19.27
2023-05-22T02:42:28.503Z,22.75
2023-05-22T02:44:55.032Z,20.02
2023-05-22T02:47:21.479Z,21.33
2023-05-22T02:49:47.918Z,17.17
2023-05-22T02:52:14.290Z,17.88
2023-05-22T02:54:40.651Z,17.48
2023-05-22T02:57:07.157Z,18.88
2023-05-22T02:59:33.782Z,17.33
2023-05-22T03:02:00.289Z,14.10
2023-05-22T03:04:27.476Z,16.55
2023-05-22T03:06:55.113Z,15.85
2023-05-22T03:09:21.711Z,18.52
2023-05-22T03:11:48.274Z,17.73
2023-05-22T03:14:15.217Z,21.40
2023-05-22T03:16:41.677Z,26.92
2023-05-22T03:19:09.320Z,23.48
2023-05-22T03:21:36.553Z,25.05
2023-05-22T03:24:04.275Z,23.38
2023-05-22T03:26:30.926Z,31.33
2023-05-22T03:28:57.565Z,32.28
2023-05-22T03:31:27.028Z,27.25
2023-05-22T03:33:53.862Z,35.40
2023-05-22T03:36:21.437Z,41.90
2023-05-22T03:38:47.812Z,39.40
2023-05-22T03:41:14.381Z,31.27
2023-05-22T03:43:43.409Z,23.90
2023-05-22T03:46:11.314Z,32.88
2023-05-22T03:48:38.756Z,35.33
2023-05-22T03:51:06.693Z,43.07
2023-05-22T03:53:33.155Z,41.15
2023-05-22T03:55:59.961Z,27.10
2023-05-22T03:58:26.472Z,23.77
2023-05-22T04:00:58.555Z,26.85
2023-05-22T04:03:25.109Z,39.33
2023-05-22T04:05:51.683Z,24.40
2023-05-22T04:08:18.070Z,41.25
2023-05-22T04:10:46.615Z,34.78
2023-05-22T04:13:13.873Z,49.90
2023-05-22T04:15:41.580Z,45.57
2023-05-22T04:18:08.398Z,44.50
2023-05-22T04:20:35.197Z,32.05
2023-05-22T04:23:01.668Z,37.30
2023-05-22T04:25:28.100Z,49.78
2023-05-22T04:27:54.847Z,30.87
2023-05-22T04:30:22.019Z,38.42
2023-05-22T04:32:48.579Z,36.70
2023-05-22T04:35:18.396Z,37.45
2023-05-22T04:37:45.588Z,37.20
2023-05-22T04:40:12.775Z,33.37
2023-05-22T04:42:39.280Z,27.80
2023-05-22T04:45:06.140Z,35.20
2023-05-22T04:47:32.825Z,24.67
2023-05-22T04:50:00.298Z,25.23
2023-05-22T04:52:27.058Z,28.87
2023-05-22T04:54:54.423Z,29.25
2023-05-22T04:57:21.476Z,29.85
2023-05-22T04:59:48.243Z,30.25
2023-05-22T05:02:14.833Z,32.13
2023-05-22T05:04:41.275Z,31.97
2023-05-22T05:07:08.901Z,29.00
2023-05-22T05:09:35.656Z,32.67
2023-05-22T05:12:04.122Z,30.73
2023-05-22T05:14:30.499Z,32.90
2023-05-22T05:16:58.548Z,31.30
2023-05-22T05:19:26.623Z,29.50
2023-05-22T05:21:53.122Z,31.20
2023-05-22T05:24:19.507Z,29.23
2023-05-22T05:26:45.983Z,30.38
2023-05-22T05:29:12.730Z,35.03
2023-05-22T05:31:39.644Z,29.75
2023-05-22T05:34:06.181Z,33.33
2023-05-22T05:36:32.617Z,26.02
2023-05-22T05:38:59.352Z,29.13
2023-05-22T05:41:26.912Z,27.13
2023-05-22T05:43:53.645Z,27.85
2023-05-22T05:46:20.233Z,27.42
2023-05-22T05:48:46.646Z,28.92
2023-05-22T05:51:13.011Z,29.58
2023-05-22T05:53:40.940Z,31.63
2023-05-22T05:56:08.418Z,31.55
2023-05-22T05:58:34.892Z,30.23
2023-05-22T06:01:01.525Z,27.85
2023-05-22T06:03:27.994Z,29.05
2023-05-22T06:05:55.661Z,31.70
2023-05-22T06:08:22.101Z,26.60
2023-05-22T06:10:48.846Z,24.80
2023-05-22T06:13:15.215Z,28.20
2023-05-22T06:15:41.889Z,29.05
2023-05-22T06:18:08.378Z,26.60
2023-05-22T06:20:34.847Z,24.92
2023-05-22T06:23:01.243Z,25.13
2023-05-22T06:25:29.961Z,21.13
2023-05-22T06:27:56.633Z,21.02
2023-05-22T06:30:43.595Z,25.67
2023-05-22T06:33:10.067Z,23.05
2023-05-22T06:35:39.802Z,21.02
2023-05-22T06:38:07.966Z,24.35
2023-05-22T06:40:36.314Z,21.10
2023-05-22T06:43:02.834Z,24.97
2023-05-22T06:45:29.270Z,19.75
2023-05-22T06:47:55.852Z,20.55
2023-05-22T06:50:22.338Z,25.83
2023-05-22T06:52:49.601Z,22.90
2023-05-22T06:55:17.078Z,20.73
2023-05-22T06:57:45.035Z,23.23
2023-05-22T07:00:12.723Z,15.90
2023-05-22T07:02:39.909Z,20.48
2023-05-22T07:05:06.907Z,22.85
2023-05-22T07:07:33.573Z,19.47
2023-05-22T07:10:00.087Z,17.17
2023-05-22T07:12:27.559Z,21.10
2023-05-22T07:14:54.512Z,19.15
2023-05-22T07:17:24.232Z,17.40
2023-05-22T07:19:54.533Z,19.33
2023-05-22T07:22:24.358Z,18.45
2023-05-22T07:24:57.227Z,17.98
2023-05-22T07:27:23.623Z,17.73
2023-05-22T07:29:50.029Z,22.90
2023-05-22T07:32:18.673Z,20.60
2023-05-22T07:34:45.715Z,21.55
2023-05-22T07:37:14.195Z,15.40
2023-05-22T07:39:40.774Z,19.30
2023-05-22T07:42:07.704Z,15.73
2023-05-22T07:44:34.352Z,15.53
2023-05-22T07:47:00.788Z,15.77
2023-05-22T07:49:27.207Z,18.00
2023-05-22T07:51:55.383Z,16.13
2023-05-22T07:54:21.851Z,19.17
2023-05-22T07:56:49.658Z,16.77
2023-05-22T07:59:16.659Z,16.63
2023-05-22T08:01:43.261Z,18.25
2023-05-22T08:04:09.957Z,17.27
2023-05-22T08:06:36.735Z,23.15
2023-05-22T08:09:04.627Z,23.00
2023-05-22T08:11:31.154Z,16.85
2023-05-22T08:13:57.565Z,17.88
2023-05-22T08:16:25.136Z,18.75
2023-05-22T08:18:55.226Z,19.17
2023-05-22T08:21:21.635Z,18.10
2023-05-22T08:23:48.098Z,18.83
2023-05-22T08:26:16.725Z,17.95
2023-05-22T08:28:44.338Z,18.20
2023-05-22T08:31:14.596Z,21.10
2023-05-22T08:33:41.095Z,16.57
2023-05-22T08:36:07.686Z,15.85
2023-05-22T08:38:34.220Z,18.80
2023-05-22T08:41:00.825Z,17.95
2023-05-22T08:43:28.573Z,17.42
2023-05-22T08:46:08.677Z,19.30
2023-05-22T08:48:35.080Z,16.83
2023-05-22T08:51:05.625Z,15.00
2023-05-22T08:53:38.970Z,16.42
2023-05-22T08:56:07.423Z,15.52
2023-05-22T08:58:36.133Z,13.67
2023-05-22T09:01:09.206Z,15.80
2023-05-22T09:03:36.874Z,14.80
2023-05-22T09:06:03.645Z,17.10
2023-05-22T09:08:30.112Z,15.43
2023-05-22T09:10:56.595Z,14.63
2023-05-22T09:13:30.918Z,16.25
2023-05-22T09:16:09.360Z,16.58
2023-05-22T09:18:44.247Z,19.13
2023-05-22T09:21:25.721Z,16.95
2023-05-22T09:23:59.953Z,14.13
2023-05-22T09:26:29.823Z,16.00
2023-05-22T09:28:58.809Z,16.92
2023-05-22T09:31:26.148Z,17.95
2023-05-22T09:33:53.765Z,15.85
2023-05-22T09:36:20.775Z,13.43
2023-05-22T09:38:47.223Z,18.23
2023-05-22T09:41:20.348Z,14.88
2023-05-22T09:43:50.682Z,13.93
2023-05-22T09:46:17.620Z,14.18
2023-05-22T09:48:44.143Z,16.40
2023-05-22T09:51:11.482Z,17.92
2023-05-22T09:53:41.043Z,19.35
2023-05-22T09:56:13.813Z,17.63
2023-05-22T09:58:43.250Z,16.17
2023-05-22T10:01:13.814Z,15.73
2023-05-22T10:03:40.942Z,16.33
2023-05-22T10:06:09.148Z,17.42
2023-05-22T10:08:42.035Z,19.80
2023-05-22T10:11:10.981Z,17.98
2023-05-22T10:13:38.420Z,19.87
2023-05-22T10:16:07.435Z,17.38
2023-05-22T10:18:34.264Z,21.10
2023-05-22T10:21:01.209Z,17.58
2023-05-22T10:23:29.662Z,16.15
2023-05-22T10:26:01.177Z,17.97
2023-05-22T10:28:33.235Z,17.25
2023-05-22T10:31:09.877Z,16.20
2023-05-22T10:33:44.778Z,16.80
2023-05-22T10:36:26.552Z,14.98
2023-05-22T10:38:56.047Z,16.70
2023-05-22T10:41:23.661Z,17.10
2023-05-22T10:43:53.830Z,16.92
2023-05-22T10:46:20.737Z,13.70
2023-05-22T10:48:48.750Z,12.75
2023-05-22T10:51:20.759Z,11.43
2023-05-22T10:54:05.322Z,11.57
2023-05-22T10:56:35.914Z,11.82
2023-05-22T10:59:11.511Z,11.00
2023-05-22T11:01:38.713Z,11.57
2023-05-22T11:04:06.740Z,12.27
2023-05-22T11:06:48.916Z,14.27
2023-05-22T11:09:31.070Z,14.13
2023-05-22T11:12:12.892Z,11.52
2023-05-22T11:14:39.576Z,10.15
2023-05-22T11:17:07.334Z,16.23
2023-05-22T11:19:36.047Z,11.93
2023-05-22T11:22:03.688Z,13.18
2023-05-22T11:24:34.244Z,14.63
2023-05-22T11:27:03.419Z,14.25
2023-05-22T11:29:30.598Z,12.70
2023-05-22T11:31:58.448Z,12.93
2023-05-22T11:34:25.821Z,10.65
2023-05-22T11:37:00.166Z,12.60
2023-05-22T11:39:27.023Z,9.70
2023-05-22T11:41:53.526Z,8.63
2023-05-22T11:44:20.016Z,10.95
2023-05-22T11:46:48.774Z,11.38
2023-05-22T11:49:17.717Z,10.40
2023-05-22T11:51:44.498Z,10.65
2023-05-22T11:54:11.752Z,9.23
2023-05-22T11:56:38.361Z,8.85
2023-05-22T11:59:04.746Z,8.45
2023-05-22T12:01:32.402Z,7.75
2023-05-22T12:03:58.833Z,7.80
2023-05-22T12:06:26.988Z,8.00
2023-05-22T12:08:54.099Z,11.10
2023-05-22T12:11:21.538Z,8.77
2023-05-22T12:13:53.391Z,9.27
2023-05-22T12:16:22.747Z,9.43
2023-05-22T12:18:54.008Z,7.37
2023-05-22T12:21:23.906Z,10.35
2023-05-22T12:23:51.376Z,8.68
2023-05-22T12:26:18.296Z,13.13
2023-05-22T12:28:45.192Z,11.30
2023-05-22T12:31:20.256Z,11.33
2023-05-22T12:33:46.655Z,8.30
2023-05-22T12:36:15.077Z,9.15
2023-05-22T12:38:41.522Z,9.32
2023-05-22T12:41:08.068Z,8.57
2023-05-22T12:43:34.599Z,9.83
2023-05-22T12:46:08.549Z,9.52
2023-05-22T12:48:34.943Z,11.10
2023-05-22T12:51:01.472Z,11.13
2023-05-22T12:53:27.860Z,10.65
2023-05-22T12:55:56.250Z,13.73
2023-05-22T12:58:22.749Z,12.65
2023-05-22T13:00:49.151Z,11.48
2023-05-22T13:03:15.858Z,9.40
2023-05-22T13:05:42.639Z,14.48
2023-05-22T13:08:09.340Z,12.27
2023-05-22T13:10:38.595Z,17.88
2023-05-22T13:13:05.027Z,14.05
2023-05-22T13:15:32.535Z,12.75
2023-05-22T13:17:59.146Z,12.82
2023-05-22T13:20:25.628Z,13.00
2023-05-22T13:22:52.034Z,17.88
2023-05-22T13:25:19.141Z,11.73
2023-05-22T13:27:46.200Z,14.25
2023-05-22T13:30:12.894Z,13.38
2023-05-22T13:32:39.350Z,11.10
2023-05-22T13:35:06.234Z,15.30
2023-05-22T13:37:32.726Z,13.52
2023-05-22T13:39:59.092Z,13.18
2023-05-22T13:42:25.841Z,9.30
2023-05-22T13:44:52.275Z,9.60
2023-05-22T13:47:18.945Z,11.68
2023-05-22T13:49:47.215Z,11.40
2023-05-22T13:52:15.200Z,11.18
2023-05-22T13:54:42.232Z,9.45
2023-05-22T13:57:09.716Z,10.27
2023-05-22T13:59:36.891Z,7.68
2023-05-22T14:02:03.891Z,9.93
2023-05-22T14:04:30.890Z,9.00
2023-05-22T14:06:57.398Z,8.07
2023-05-22T14:09:23.790Z,7.80
2023-05-22T14:11:50.560Z,10.15
2023-05-22T14:14:25.907Z,8.98
2023-05-22T14:16:53.625Z,7.57
2023-05-22T14:19:20.594Z,9.10
2023-05-22T14:21:49.051Z,9.23
2023-05-22T14:24:15.883Z,10.20
2023-05-22T14:26:42.366Z,8.23
2023-05-22T14:29:09.093Z,7.72
2023-05-22T14:31:52.305Z,9.60
2023-05-22T14:34:23.705Z,7.33
2023-05-22T14:36:50.298Z,8.68
2023-05-22T14:39:16.722Z,8.93
2023-05-22T14:41:43.154Z,8.27
2023-05-22T14:44:09.696Z,8.63
2023-05-22T14:46:36.164Z,7.27
2023-05-22T14:49:02.635Z,12.05
2023-05-22T14:51:29.127Z,7.47
2023-05-22T14:53:55.522Z,8.38
2023-05-22T14:56:22.922Z,6.30
2023-05-22T14:58:49.260Z,9.83
2023-05-22T15:01:15.672Z,6.75
2023-05-22T15:03:42.207Z,6.95
2023-05-22T15:06:08.599Z,7.68
2023-05-22T15:08:36.550Z,5.97
2023-05-22T15:11:03.004Z,6.70
2023-05-22T15:13:29.379Z,7.28
2023-05-22T15:15:55.979Z,5.85
2023-05-22T15:18:22.364Z,4.30
2023-05-22T15:20:48.884Z,4.35
2023-05-22T15:23:15.680Z,5.33
2023-05-22T15:25:42.949Z,4.85
2023-05-22T15:28:09.335Z,7.80
2023-05-22T15:30:36.357Z,6.10
2023-05-22T15:33:06.830Z,7.32
2023-05-22T15:35:34.519Z,7.33
2023-05-22T15:38:08.861Z,4.57
2023-05-22T15:40:38.848Z,4.78
2023-05-22T15:43:06.813Z,6.10
2023-05-22T15:45:34.381Z,3.67
2023-05-22T15:48:00.880Z,3.17
2023-05-22T15:50:27.805Z,3.38
2023-05-22T15:52:56.493Z,3.20
2023-05-22T15:55:22.960Z,3.05
2023-05-22T15:57:52.909Z,2.85
2023-05-22T16:00:21.410Z,4.00
2023-05-22T16:02:52.028Z,2.58
2023-05-22T16:05:18.561Z,2.53
2023-05-22T16:07:45.950Z,3.95
2023-05-22T16:10:12.367Z,4.72
2023-05-22T16:12:39.708Z,3.43
2023-05-22T16:15:07.153Z,5.20
2023-05-22T16:17:33.751Z,3.10
2023-05-22T16:20:00.199Z,4.07
2023-05-22T16:22:40.271Z,6.05
2023-05-22T16:25:14.590Z,5.03
2023-05-22T16:27:41.133Z,5.55
2023-05-22T16:30:08.181Z,3.42
2023-05-22T16:32:34.699Z,5.25
2023-05-22T16:35:01.237Z,5.68
2023-05-22T16:37:29.405Z,5.70
2023-05-22T16:39:56.224Z,5.30
2023-05-22T16:42:22.696Z,3.55
2023-05-22T16:44:49.074Z,3.50
2023-05-22T16:47:15.452Z,4.60
2023-05-22T16:49:41.850Z,4.23
2023-05-22T16:52:08.209Z,5.22
2023-05-22T16:54:34.965Z,4.18
2023-05-22T16:57:03.986Z,5.43
2023-05-22T16:59:33.977Z,3.65
2023-05-22T17:02:00.714Z,4.23
2023-05-22T17:04:27.167Z,3.78
2023-05-22T17:06:55.623Z,4.28
2023-05-22T17:09:22.209Z,5.95
2023-05-22T17:11:48.820Z,6.75
2023-05-22T17:14:15.352Z,4.67
2023-05-22T17:16:41.954Z,3.60
2023-05-22T17:19:08.442Z,5.03
2023-05-22T17:21:34.998Z,3.45
2023-05-22T17:24:01.447Z,5.80
2023-05-22T17:26:29.504Z,5.13
2023-05-22T17:28:55.895Z,4.57
2023-05-22T17:31:23.169Z,6.68
2023-05-22T17:33:49.612Z,6.32
2023-05-22T17:36:15.987Z,5.00
2023-05-22T17:38:42.345Z,7.00
2023-05-22T17:41:08.796Z,4.20
2023-05-22T17:43:35.278Z,6.70
2023-05-22T17:46:04.277Z,5.90
2023-05-22T17:48:30.916Z,4.78
2023-05-22T17:50:57.475Z,6.30
2023-05-22T17:53:23.876Z,7.63
2023-05-22T17:55:52.337Z,5.82
2023-05-22T17:58:20.012Z,8.88
2023-05-22T18:00:48.705Z,7.32
2023-05-22T18:03:15.191Z,5.77
2023-05-22T18:05:41.678Z,6.60
2023-05-22T18:08:08.084Z,6.03
2023-05-22T18:10:38.411Z,5.20
2023-05-22T18:13:09.935Z,7.50
2023-05-22T18:15:36.424Z,7.13
2023-05-22T18:18:03.534Z,8.57
2023-05-22T18:20:30.226Z,6.35
2023-05-22T18:22:56.661Z,7.15
2023-05-22T18:25:23.056Z,12.90
2023-05-22T18:27:49.491Z,10.03
2023-05-22T18:30:19.753Z,6.55
2023-05-22T18:32:46.318Z,7.00
2023-05-22T18:35:12.800Z,8.55
2023-05-22T18:37:39.178Z,9.60
2023-05-22T18:40:09.225Z,7.77
2023-05-22T18:42:35.779Z,7.13
2023-05-22T18:45:02.444Z,6.45
2023-05-22T18:47:29.775Z,8.15
2023-05-22T18:49:56.217Z,8.48
2023-05-22T18:52:22.604Z,10.67
2023-05-22T18:54:49.052Z,6.22
2023-05-22T18:57:15.635Z,5.32
2023-05-22T18:59:56.848Z,6.90
2023-05-22T19:02:30.047Z,9.55
2023-05-22T19:04:56.790Z,12.43
2023-05-22T19:07:23.182Z,7.75
2023-05-22T19:09:49.671Z,10.25
2023-05-22T19:12:16.144Z,9.85
2023-05-22T19:14:42.602Z,8.88
2023-05-22T19:17:09.897Z,9.37
2023-05-22T19:19:39.438Z,7.13
2023-05-22T19:22:12.377Z,12.68
2023-05-22T19:24:38.884Z,7.43
2023-05-22T19:27:05.807Z,18.48
2023-05-22T19:29:32.223Z,9.17
2023-05-22T19:31:58.644Z,6.40
2023-05-22T19:34:25.007Z,8.60
2023-05-22T19:36:52.114Z,11.13
2023-05-22T19:39:18.612Z,12.15
2023-05-22T19:41:45.177Z,13.50
2023-05-22T19:44:11.787Z,9.82
2023-05-22T19:46:38.215Z,8.02
2023-05-22T19:49:04.654Z,11.55
2023-05-22T19:51:32.131Z,11.30
2023-05-22T19:53:59.286Z,10.13
2023-05-22T19:56:25.999Z,9.90
2023-05-22T19:58:53.681Z,10.10
2023-05-22T20:01:20.122Z,14.10
2023-05-22T20:03:47.087Z,12.18
2023-05-22T20:06:17.948Z,11.10
2023-05-22T20:08:45.716Z,9.73
2023-05-22T20:11:12.126Z,11.90
2023-05-22T20:13:38.560Z,9.40
2023-05-22T20:16:11.642Z,13.00
2023-05-22T20:18:38.858Z,11.60
2023-05-22T20:21:05.251Z,10.30
2023-05-22T20:23:31.638Z,14.25
2023-05-22T20:25:58.078Z,12.77
2023-05-22T20:28:25.743Z,13.30
2023-05-22T20:30:52.185Z,12.93
2023-05-22T20:33:19.361Z,13.15
2023-05-22T20:35:49.347Z,15.00
2023-05-22T20:38:18.907Z,15.85
2023-05-22T20:40:48.359Z,15.25
2023-05-22T20:43:15.906Z,14.53
2023-05-22T20:45:45.473Z,11.95
2023-05-22T20:48:15.221Z,12.68
2023-05-22T20:50:42.347Z,12.00
2023-05-22T20:53:08.770Z,7.68
2023-05-22T20:55:35.594Z,9.23
2023-05-22T20:58:01.991Z,7.80
2023-05-22T21:00:28.870Z,6.53
2023-05-22T21:02:58.132Z,8.60
2023-05-22T21:05:26.118Z,8.40
2023-05-22T21:07:52.658Z,8.63
2023-05-22T21:10:19.090Z,5.75
2023-05-22T21:12:45.576Z,7.60
2023-05-22T21:15:12.038Z,6.82
2023-05-22T21:17:39.149Z,5.18
2023-05-22T21:20:06.221Z,6.30
2023-05-22T21:22:32.627Z,5.00
2023-05-22T21:24:59.038Z,3.88
2023-05-22T21:27:25.605Z,7.85
2023-05-22T21:29:51.961Z,6.45
2023-05-22T21:32:18.410Z,5.43
2023-05-22T21:34:44.916Z,4.72
2023-05-22T21:37:11.361Z,5.43
2023-05-22T21:39:37.779Z,4.50
2023-05-22T21:42:04.404Z,4.95
2023-05-22T21:44:30.814Z,4.00
2023-05-22T21:46:57.303Z,4.60
2023-05-22T21:49:23.726Z,6.95
2023-05-22T21:51:50.086Z,5.63
2023-05-22T21:54:16.834Z,5.07
2023-05-22T21:56:43.319Z,4.70
2023-05-22T21:59:09.713Z,5.85
2023-05-22T22:01:36.255Z,6.03
2023-05-22T22:04:02.734Z,3.92
2023-05-22T22:06:29.487Z,5.72
2023-05-22T22:08:58.653Z,5.90
2023-05-22T22:11:26.408Z,4.57
2023-05-22T22:13:55.861Z,5.53
2023-05-22T22:16:22.998Z,9.18
2023-05-22T22:18:50.287Z,6.57
2023-05-22T22:21:17.160Z,5.53
2023-05-22T22:23:43.580Z,8.25
2023-05-22T22:26:09.975Z,7.45
2023-05-22T22:28:36.464Z,5.72
2023-05-22T22:31:03.006Z,4.60
2023-05-22T22:33:30.356Z,5.63
2023-05-22T22:35:56.765Z,7.38
2023-05-22T22:38:23.278Z,7.95
2023-05-22T22:40:54.861Z,6.65
2023-05-22T22:43:21.289Z,6.40
2023-05-22T22:45:47.714Z,8.47
2023-05-22T22:48:16.477Z,8.23
2023-05-22T22:50:43.047Z,6.93
2023-05-22T22:53:09.546Z,8.50
2023-05-22T22:55:35.922Z,7.55
2023-05-22T22:58:02.409Z,14.90
2023-05-22T23:00:29.166Z,8.73
2023-05-22T23:02:55.578Z,9.48
2023-05-22T23:05:22.153Z,8.35
2023-05-22T23:07:49.127Z,11.05
2023-05-22T23:10:15.817Z,8.43
2023-05-22T23:12:42.414Z,13.30
2023-05-22T23:15:09.582Z,12.90
2023-05-22T23:17:36.109Z,11.00
2023-05-22T23:20:02.518Z,10.90
2023-05-22T23:22:28.928Z,10.20
2023-05-22T23:24:56.910Z,10.88
2023-05-22T23:27:23.285Z,13.60
2023-05-22T23:29:49.675Z,9.70
2023-05-22T23:32:16.032Z,12.48
2023-05-22T23:34:43.121Z,14.57
2023-05-22T23:37:13.847Z,14.90
2023-05-22T23:39:40.519Z,13.52
2023-05-22T23:42:09.702Z,16.00
2023-05-22T23:44:36.875Z,11.25
2023-05-22T23:47:03.436Z,20.03
2023-05-22T23:49:29.821Z,12.50
2023-05-22T23:51:56.266Z,14.75
2023-05-22T23:54:22.680Z,14.68
2023-05-22T23:56:50.698Z,18.77
2023-05-22T23:59:17.273Z,12.80
